Time;durP1;ratioP1;P1;durP2;ratioP2;P2;SDS_P1;SDS_P2;PMS_P1;PMS_P2;Temp;Humidity;BMP_temperature;BMP_pressure;BME280_temperature;BME280_humidity;BME280_pressure;Samples;Min_cycle;Max_cycle;Signal;HPM_P1;HPM_P2
2022/05/05 00:00:18;;;;;;;;;;;;;;;;;;5034141;28;19909;-84
2022/05/05 00:03:04;;;;;;;;;;;;;;;;;;5033094;28;19913;-84
2022/05/05 00:05:50;;;;;;;;;;;;;;;;;;5034369;28;19921;-84
2022/05/05 00:08:37;;;;;;;;;;;;;;;;;;5046462;28;20253;-83
2022/05/05 00:14:31;;;;;;;;;;;;;;;;;;5051051;28;19915;-83
2022/05/05 00:17:18;;;;;;;;;;;;;;;;;;5050848;28;19916;-83
2022/05/05 00:20:04;;;;;;;;;;;;;;;;;;5053238;28;19913;-84
2022/05/05 00:22:51;;;;;;;;;;;;;;;;;;5051535;28;20316;-84
2022/05/05 00:25:37;;;;;;;;;;;;;;;;;;5041284;28;19921;-83
2022/05/05 00:28:24;;;;;;;;;;;;;;;;;;5038833;28;19912;-83
2022/05/05 00:31:10;;;;;;;;;;;;;;;;;;5042530;28;19923;-83
2022/05/05 00:33:57;;;;;;;;;;;;;;;;;;5059572;28;19916;-81
2022/05/05 00:36:43;;;;;;;;;;;;;;;;;;5049744;28;19913;-83
2022/05/05 00:39:30;;;;;;;;;;;;;;;;;;5038475;28;19910;-83
2022/05/05 00:42:16;;;;;;;;;;;;;;;;;;5034171;28;19921;-83
2022/05/05 00:45:03;;;;;;;;;;;;;;;;;;5044291;28;19923;-83
2022/05/05 00:47:49;;;;;;;;;;;;;;;;;;5040317;28;20387;-83
2022/05/05 00:50:36;;;;;;;;;;;;;;;;;;5037187;28;20691;-83
2022/05/05 00:53:22;;;;;;;;;;;;;;;;;;5041036;28;19960;-82
2022/05/05 00:56:09;;;;;;;;;;;;;;;;;;5039565;28;19915;-83
2022/05/05 00:58:55;;;;;;;;;;;;;;;;;;5039062;28;19923;-83
2022/05/05 01:01:42;;;;;;;;;;;;;;;;;;5052343;28;20285;-84
2022/05/05 01:04:28;;;;;;;;;;;;;;;;;;5042960;28;19915;-84
2022/05/05 01:07:15;;;;;;;;;;;;;;;;;;5039707;28;20248;-84
2022/05/05 01:10:01;;;;;;;;;;;;;;;;;;5033228;28;19909;-84
2022/05/05 01:12:48;;;;;;;;;;;;;;;;;;5035056;28;20639;-84
2022/05/05 01:15:34;;;;;;;;;;;;;;;;;;5033422;28;19909;-83
2022/05/05 01:18:21;;;;;;;;;;;;;;;;;;5033033;28;20508;-85
2022/05/05 01:21:24;;;;;;;;;;;;;;;;;;5047685;28;19928;-84
2022/05/05 01:24:10;;;;;;;;;;;;;;;;;;5045839;28;19916;-84
2022/05/05 01:30:02;;;;;;;;;;;;;;;;;;5039369;28;20341;-84
2022/05/05 01:32:48;;;;;;;;;;;;;;;;;;5042539;28;19909;-84
2022/05/05 01:35:35;;;;;;;;;;;;;;;;;;5042647;28;19947;-83
2022/05/05 01:38:24;;;;;;;;;;;;;;;;;;5045026;28;19915;-82
2022/05/05 01:41:10;;;;;;;;;;;;;;;;;;5055634;28;20054;-84
2022/05/05 01:43:57;;;;;;;;;;;;;;;;;;5045722;28;19920;-84
2022/05/05 01:46:43;;;;;;;;;;;;;;;;;;5034294;28;19923;-81
2022/05/05 01:49:29;;;;;;;;;;;;;;;;;;5034131;28;19909;-81
2022/05/05 01:52:16;;;;;;;;;;;;;;;;;;5032834;28;19912;-83
2022/05/05 01:55:02;;;;;;;;;;;;;;;;;;5032398;28;19912;-82
2022/05/05 01:57:49;;;;;;;;;;;;;;;;;;5034380;28;19932;-82
2022/05/05 02:00:35;;;;;;;;;;;;;;;;;;5042129;28;20310;-82
2022/05/05 02:03:22;;;;;;;;;;;;;;;;;;5029816;28;19921;-82
2022/05/05 02:06:08;;;;;;;;;;;;;;;;;;5034620;28;20400;-82
2022/05/05 02:08:57;;;;;;;;;;;;;;;;;;5062170;28;20011;-82
2022/05/05 02:11:43;;;;;;;;;;;;;;;;;;5052300;28;19912;-82
2022/05/05 02:14:32;;;;;;;;;;;;;;;;;;5065896;28;19915;-82
2022/05/05 02:17:21;;;;;;;;;;;;;;;;;;5050092;28;19965;-83
2022/05/05 02:20:08;;;;;;;;;;;;;;;;;;5041167;28;20249;-84
2022/05/05 02:22:54;;;;;;;;;;;;;;;;;;5041224;28;19917;-83
2022/05/05 02:25:41;;;;;;;;;;;;;;;;;;5051617;28;19912;-83
2022/05/05 02:28:27;;;;;;;;;;;;;;;;;;5035415;28;19909;-84
2022/05/05 02:31:14;;;;;;;;;;;;;;;;;;5037054;28;19924;-84
2022/05/05 02:34:01;;;;;;;;;;;;;;;;;;5045149;28;19927;-85
2022/05/05 02:39:53;;;;;;;;;;;;;;;;;;5038734;28;19912;-84
2022/05/05 02:42:40;;;;;;;;;;;;;;;;;;5057242;28;19916;-84
2022/05/05 02:45:26;;;;;;;;;;;;;;;;;;5043396;28;20365;-83
2022/05/05 02:48:13;;;;;;;;;;;;;;;;;;5063697;28;20408;-83
2022/05/05 02:50:59;;;;;;;;;;;;;;;;;;5050786;28;19913;-85
2022/05/05 02:56:51;;;;;;;;;;;;;;;;;;5051678;28;19959;-85
2022/05/05 02:59:37;;;;;;;;;;;;;;;;;;5052300;28;19909;-85
2022/05/05 03:02:24;;;;;;;;;;;;;;;;;;5045791;28;19928;-84
2022/05/05 03:05:10;;;;;;;;;;;;;;;;;;5051799;28;20735;-84
2022/05/05 03:07:57;;;;;;;;;;;;;;;;;;5062366;28;20531;-84
2022/05/05 03:10:43;;;;;;;;;;;;;;;;;;5051780;28;19962;-88
2022/05/05 03:13:30;;;;;;;;;;;;;;;;;;5056695;28;19913;-90
2022/05/05 03:16:16;;;;;;;;;;;;;;;;;;5046695;28;19920;-90
2022/05/05 03:19:03;;;;;;;;;;;;;;;;;;5046464;28;19913;-89
2022/05/05 03:21:49;;;;;;;;;;;;;;;;;;5047739;28;19926;-89
2022/05/05 03:24:36;;;;;;;;;;;;;;;;;;5049208;28;19913;-90
2022/05/05 03:27:23;;;;;;;;;;;;;;;;;;5043117;28;19909;-88
2022/05/05 03:30:10;;;;;;;;;;;;;;;;;;5050701;28;19915;-88
2022/05/05 03:32:56;;;;;;;;;;;;;;;;;;5064768;28;19913;-92
2022/05/05 03:35:43;;;;;;;;;;;;;;;;;;5044360;28;20462;-91
2022/05/05 03:38:29;;;;;;;;;;;;;;;;;;5046504;28;20424;-90
2022/05/05 03:41:15;;;;;;;;;;;;;;;;;;5062832;28;19921;-88
2022/05/05 03:44:03;;;;;;;;;;;;;;;;;;5044860;28;19909;-85
2022/05/05 03:46:50;;;;;;;;;;;;;;;;;;5048056;28;19916;-83
2022/05/05 03:49:37;;;;;;;;;;;;;;;;;;5036381;28;19917;-83
2022/05/05 03:52:23;;;;;;;;;;;;;;;;;;5037906;28;19920;-86
2022/05/05 03:55:10;;;;;;;;;;;;;;;;;;5042492;28;20010;-89
2022/05/05 03:57:56;;;;;;;;;;;;;;;;;;5039782;28;19935;-88
2022/05/05 04:00:43;;;;;;;;;;;;;;;;;;5043424;28;19913;-84
2022/05/05 04:03:32;;;;;;;;;;;;;;;;;;5051859;28;19913;-88
2022/05/05 04:06:20;;;;;;;;;;;;;;;;;;5037075;28;20383;-89
2022/05/05 04:09:06;;;;;;;;;;;;;;;;;;5048645;28;19916;-86
2022/05/05 04:11:53;;;;;;;;;;;;;;;;;;5049024;28;19919;-88
2022/05/05 04:14:39;;;;;;;;;;;;;;;;;;5061229;28;19924;-89
2022/05/05 04:17:25;;;;;;;;;;;;;;;;;;5050455;28;19919;-89
2022/05/05 04:20:12;;;;;;;;;;;;;;;;;;5054480;28;19916;-89
2022/05/05 04:22:58;;;;;;;;;;;;;;;;;;5062491;28;19924;-90
2022/05/05 04:25:45;;;;;;;;;;;;;;;;;;5052053;28;19920;-89
2022/05/05 04:28:31;;;;;;;;;;;;;;;;;;5074116;28;19909;-89
2022/05/05 04:31:18;;;;;;;;;;;;;;;;;;5043605;28;19909;-92
2022/05/05 04:34:04;;;;;;;;;;;;;;;;;;5065182;28;19925;-89
2022/05/05 04:36:53;;;;;;;;;;;;;;;;;;5049768;28;19912;-90
2022/05/05 04:39:39;;;;;;;;;;;;;;;;;;5058697;28;19912;-91
2022/05/05 04:42:26;;;;;;;;;;;;;;;;;;5069926;28;19917;-92
2022/05/05 04:45:12;;;;;;;;;;;;;;;;;;5076441;28;19909;-92
2022/05/05 04:47:59;;;;;;;;;;;;;;;;;;5077034;28;19909;-90
2022/05/05 04:50:45;;;;;;;;;;;;;;;;;;5053403;28;20307;-93
2022/05/05 04:53:32;;;;;;;;;;;;;;;;;;5059012;28;19916;-90
2022/05/05 04:56:18;;;;;;;;;;;;;;;;;;5050480;28;19915;-89
2022/05/05 04:59:05;;;;;;;;;;;;;;;;;;5055102;28;19912;-89
2022/05/05 05:01:51;;;;;;;;;;;;;;;;;;5067555;28;19964;-90
2022/05/05 05:04:38;;;;;;;;;;;;;;;;;;5067145;28;19917;-92
2022/05/05 05:07:24;;;;;;;;;;;;;;;;;;5048103;28;20426;-92
2022/05/05 05:10:11;;;;;;;;;;;;;;;;;;5048951;28;19917;-92
2022/05/05 05:12:57;;;;;;;;;;;;;;;;;;5059577;28;19909;-92
2022/05/05 05:15:44;;;;;;;;;;;;;;;;;;5055151;28;19909;-92
2022/05/05 05:18:30;;;;;;;;;;;;;;;;;;5046728;28;19916;-90
2022/05/05 05:21:17;;;;;;;;;;;;;;;;;;5047067;28;19912;-90
2022/05/05 05:24:03;;;;;;;;;;;;;;;;;;5061638;28;20376;-90
2022/05/05 05:26:50;;;;;;;;;;;;;;;;;;5048489;28;19910;-93
2022/05/05 05:29:36;;;;;;;;;;;;;;;;;;5056940;28;19931;-92
2022/05/05 05:32:23;;;;;;;;;;;;;;;;;;5052726;28;19909;-89
2022/05/05 05:35:09;;;;;;;;;;;;;;;;;;5066160;28;19927;-89
2022/05/05 05:37:56;;;;;;;;;;;;;;;;;;5046665;28;19917;-88
2022/05/05 05:40:44;;;;;;;;;;;;;;;;;;5049105;28;20205;-89
2022/05/05 05:43:31;;;;;;;;;;;;;;;;;;5043726;28;19921;-90
2022/05/05 05:46:17;;;;;;;;;;;;;;;;;;5053555;28;19916;-89
2022/05/05 05:49:05;;;;;;;;;;;;;;;;;;5049654;28;19909;-92
2022/05/05 05:51:52;;;;;;;;;;;;;;;;;;5047730;28;19916;-92
2022/05/05 05:54:38;;;;;;;;;;;;;;;;;;5050564;28;19913;-90
2022/05/05 05:57:25;;;;;;;;;;;;;;;;;;5063492;28;19924;-91
2022/05/05 06:00:11;;;;;;;;;;;;;;;;;;5045871;28;19950;-89
2022/05/05 06:06:03;;;;;;;;;;;;;;;;;;5049696;28;19912;-87
2022/05/05 06:08:50;;;;;;;;;;;;;;;;;;5053233;28;19916;-86
2022/05/05 06:11:36;;;;;;;;;;;;;;;;;;5053098;28;20383;-87
2022/05/05 06:14:23;;;;;;;;;;;;;;;;;;5061263;28;19913;-88
2022/05/05 06:17:09;;;;;;;;;;;;;;;;;;5035059;28;19915;-86
2022/05/05 06:19:56;;;;;;;;;;;;;;;;;;5041563;28;19913;-86
2022/05/05 06:22:42;;;;;;;;;;;;;;;;;;5066280;28;19916;-86
2022/05/05 06:25:29;;;;;;;;;;;;;;;;;;5051408;28;19913;-85
2022/05/05 06:28:18;;;;;;;;;;;;;;;;;;5053750;28;19913;-85
2022/05/05 06:31:05;;;;;;;;;;;;;;;;;;5053327;28;19909;-87
2022/05/05 06:33:53;;;;;;;;;;;;;;;;;;5054212;28;19917;-87
2022/05/05 06:36:43;;;;;;;;;;;;;;;;;;5044962;28;19917;-85
2022/05/05 06:39:29;;;;;;;;;;;;;;;;;;5036031;28;19923;-86
2022/05/05 06:42:16;;;;;;;;;;;;;;;;;;5047890;28;19928;-88
2022/05/05 06:45:03;;;;;;;;;;;;;;;;;;5054353;28;19920;-86
2022/05/05 06:47:50;;;;;;;;;;;;;;;;;;5049987;28;19913;-85
2022/05/05 06:50:36;;;;;;;;;;;;;;;;;;5048059;28;19909;-84
2022/05/05 06:53:26;;;;;;;;;;;;;;;;;;5043055;28;19909;-85
2022/05/05 06:56:12;;;;;;;;;;;;;;;;;;5048549;28;19916;-85
2022/05/05 06:58:59;;;;;;;;;;;;;;;;;;5053074;28;19913;-84
2022/05/05 07:01:56;;;;;;;;;;;;;;;;;;5049374;28;19935;-85
2022/05/05 07:07:48;;;;;;;;;;;;;;;;;;5039350;28;19923;-85
2022/05/05 07:10:52;;;;;;;;;;;;;;;;;;5055291;28;19917;-82
2022/05/05 07:13:39;;;;;;;;;;;;;;;;;;5052399;28;19912;-86
2022/05/05 07:16:26;;;;;;;;;;;;;;;;;;5060140;28;20001;-87
2022/05/05 07:19:12;;;;;;;;;;;;;;;;;;5037702;28;19916;-87
2022/05/05 07:21:59;;;;;;;;;;;;;;;;;;5044435;28;19924;-87
2022/05/05 07:24:46;;;;;;;;;;;;;;;;;;5053552;28;19928;-88
2022/05/05 07:27:32;;;;;;;;;;;;;;;;;;5043501;28;19936;-88
2022/05/05 07:30:19;;;;;;;;;;;;;;;;;;5046575;28;19917;-87
2022/05/05 07:33:07;;;;;;;;;;;;;;;;;;5044242;28;19913;-88
2022/05/05 07:35:56;;;;;;;;;;;;;;;;;;5061164;28;19942;-88
2022/05/05 07:38:43;;;;;;;;;;;;;;;;;;5054391;28;19915;-90
2022/05/05 07:41:30;;;;;;;;;;;;;;;;;;5052098;28;19936;-90
2022/05/05 07:44:16;;;;;;;;;;;;;;;;;;5051334;28;19923;-89
2022/05/05 07:47:02;;;;;;;;;;;;;;;;;;5047733;28;19999;-87
2022/05/05 07:49:51;;;;;;;;;;;;;;;;;;5054958;28;19915;-87
2022/05/05 07:52:38;;;;;;;;;;;;;;;;;;5047618;28;19913;-86
2022/05/05 07:55:24;;;;;;;;;;;;;;;;;;5054404;28;20276;-88
2022/05/05 07:58:11;;;;;;;;;;;;;;;;;;5055581;28;19928;-88
2022/05/05 08:00:57;;;;;;;;;;;;;;;;;;5044595;28;19914;-88
2022/05/05 08:03:44;;;;;;;;;;;;;;;;;;5057620;28;19920;-88
2022/05/05 08:06:30;;;;;;;;;;;;;;;;;;5059974;28;19917;-87
2022/05/05 08:09:17;;;;;;;;;;;;;;;;;;5035128;28;19968;-88
2022/05/05 08:12:03;;;;;;;;;;;;;;;;;;5066655;28;19920;-87
2022/05/05 08:14:50;;;;;;;;;;;;;;;;;;5053675;28;19917;-87
2022/05/05 08:17:36;;;;;;;;;;;;;;;;;;5039977;28;19912;-88
2022/05/05 08:20:23;;;;;;;;;;;;;;;;;;5036328;28;19921;-85
2022/05/05 08:23:09;;;;;;;;;;;;;;;;;;5034520;28;20285;-85
2022/05/05 08:29:01;;;;;;;;;;;;;;;;;;5039056;28;20541;-84
2022/05/05 08:31:48;;;;;;;;;;;;;;;;;;5055102;28;19909;-85
2022/05/05 08:34:34;;;;;;;;;;;;;;;;;;5041119;28;19921;-84
2022/05/05 08:37:20;;;;;;;;;;;;;;;;;;5057740;28;19917;-86
2022/05/05 08:40:09;;;;;;;;;;;;;;;;;;5048547;28;20420;-85
2022/05/05 08:42:56;;;;;;;;;;;;;;;;;;5045135;28;19931;-85
2022/05/05 08:45:42;;;;;;;;;;;;;;;;;;5049452;28;19909;-85
2022/05/05 08:48:29;;;;;;;;;;;;;;;;;;5044929;28;19916;-87
2022/05/05 08:51:18;;;;;;;;;;;;;;;;;;5061156;28;19932;-88
2022/05/05 08:54:04;;;;;;;;;;;;;;;;;;5046333;28;19912;-89
2022/05/05 08:56:51;;;;;;;;;;;;;;;;;;5040160;28;20399;-87
2022/05/05 08:59:37;;;;;;;;;;;;;;;;;;5048865;28;19915;-86
2022/05/05 09:02:24;;;;;;;;;;;;;;;;;;5046071;28;20529;-85
2022/05/05 09:05:10;;;;;;;;;;;;;;;;;;5053618;28;19923;-85
2022/05/05 09:07:58;;;;;;;;;;;;;;;;;;5037009;28;19918;-86
2022/05/05 09:10:45;;;;;;;;;;;;;;;;;;5059946;28;19908;-86
2022/05/05 09:13:32;;;;;;;;;;;;;;;;;;5059884;28;19909;-86
2022/05/05 09:16:18;;;;;;;;;;;;;;;;;;5048116;28;19913;-87
2022/05/05 09:19:05;;;;;;;;;;;;;;;;;;5037898;28;19916;-85
2022/05/05 09:21:51;;;;;;;;;;;;;;;;;;5045656;28;19924;-87
2022/05/05 09:24:41;;;;;;;;;;;;;;;;;;5044956;28;20367;-85
2022/05/05 09:27:27;;;;;;;;;;;;;;;;;;5036490;28;19916;-85
2022/05/05 09:30:14;;;;;;;;;;;;;;;;;;5045888;28;19924;-85
2022/05/05 09:33:00;;;;;;;;;;;;;;;;;;5045113;28;20250;-87
2022/05/05 09:35:47;;;;;;;;;;;;;;;;;;5054594;28;19920;-86
2022/05/05 09:38:33;;;;;;;;;;;;;;;;;;5044192;28;19908;-86
2022/05/05 09:41:20;;;;;;;;;;;;;;;;;;5041781;28;19919;-86
2022/05/05 09:44:06;;;;;;;;;;;;;;;;;;5039782;28;19921;-86
2022/05/05 09:46:53;;;;;;;;;;;;;;;;;;5040289;28;19916;-87
2022/05/05 09:49:39;;;;;;;;;;;;;;;;;;5056826;28;19908;-86
2022/05/05 09:58:38;;;;;;;;;;;;;;;;;;5045479;28;19923;-85
2022/05/05 10:01:31;;;;;;;;;;;;;;;;;;5048863;28;19909;-88
2022/05/05 10:04:18;;;;;;;;;;;;;;;;;;5038598;28;19920;-86
2022/05/05 10:07:04;;;;;;;;;;;;;;;;;;5040015;28;19927;-87
2022/05/05 10:09:53;;;;;;;;;;;;;;;;;;5036396;28;19917;-87
2022/05/05 10:12:39;;;;;;;;;;;;;;;;;;5045495;28;20439;-87
2022/05/05 10:15:26;;;;;;;;;;;;;;;;;;5048481;28;19923;-87
2022/05/05 10:18:12;;;;;;;;;;;;;;;;;;5058622;28;19913;-87
2022/05/05 10:20:59;;;;;;;;;;;;;;;;;;5043001;28;19921;-88
2022/05/05 10:23:45;;;;;;;;;;;;;;;;;;5048857;28;19923;-87
2022/05/05 10:26:31;;;;;;;;;;;;;;;;;;5054384;28;20398;-88
2022/05/05 10:29:18;;;;;;;;;;;;;;;;;;5046842;28;19913;-87
2022/05/05 10:32:04;;;;;;;;;;;;;;;;;;5039144;28;20388;-86
2022/05/05 10:34:51;;;;;;;;;;;;;;;;;;5050920;28;20032;-87
2022/05/05 10:37:37;;;;;;;;;;;;;;;;;;5039752;28;20346;-87
2022/05/05 10:40:24;;;;;;;;;;;;;;;;;;5040724;28;19924;-86
2022/05/05 10:43:10;;;;;;;;;;;;;;;;;;5031812;28;19927;-87
2022/05/05 10:45:57;;;;;;;;;;;;;;;;;;5040201;28;19921;-86
2022/05/05 10:48:43;;;;;;;;;;;;;;;;;;5035167;28;19915;-87
2022/05/05 10:51:30;;;;;;;;;;;;;;;;;;5057868;28;19913;-87
2022/05/05 10:54:16;;;;;;;;;;;;;;;;;;5052660;28;20024;-87
2022/05/05 10:57:03;;;;;;;;;;;;;;;;;;5040482;28;19909;-88
2022/05/05 10:59:51;;;;;;;;;;;;;;;;;;5038283;28;19909;-87
2022/05/05 11:02:38;;;;;;;;;;;;;;;;;;5038877;28;20266;-87
2022/05/05 11:05:27;;;;;;;;;;;;;;;;;;5055422;28;19915;-87
2022/05/05 11:08:17;;;;;;;;;;;;;;;;;;5053089;28;19912;-88
2022/05/05 11:21:31;;;;;;;;;;;;;;;;;;5058901;28;19909;-87
2022/05/05 11:23:30;;;;;;;;;;;;;;;;;;5057672;28;19920;-87
2022/05/05 11:26:17;;;;;;;;;;;;;;;;;;5055569;28;19927;-89
2022/05/05 11:29:03;;;;;;;;;;;;;;;;;;5064848;28;19912;-88
2022/05/05 11:31:50;;;;;;;;;;;;;;;;;;5035180;28;19913;-88
2022/05/05 11:34:36;;;;;;;;;;;;;;;;;;5038455;28;19932;-88
2022/05/05 11:37:23;;;;;;;;;;;;;;;;;;5064560;28;19914;-88
2022/05/05 11:40:11;;;;;;;;;;;;;;;;;;5043851;28;19917;-88
2022/05/05 11:46:02;;;;;;;;;;;;;;;;;;5049782;28;19913;-88
2022/05/05 11:48:49;;;;;;;;;;;;;;;;;;5051759;28;19917;-87
2022/05/05 11:51:35;;;;;;;;;;;;;;;;;;5064539;28;20391;-87
2022/05/05 11:54:22;;;;;;;;;;;;;;;;;;5052589;28;19915;-87
2022/05/05 11:57:09;;;;;;;;;;;;;;;;;;5041305;28;19919;-88
2022/05/05 12:03:00;;;;;;;;;;;;;;;;;;5039965;28;19924;-87
2022/05/05 12:05:52;;;;;;;;;;;;;;;;;;5051610;28;19915;-89
2022/05/05 12:08:39;;;;;;;;;;;;;;;;;;5051841;28;19931;-88
2022/05/05 12:11:25;;;;;;;;;;;;;;;;;;5050646;28;19913;-88
2022/05/05 12:14:17;;;;;;;;;;;;;;;;;;5060465;28;19912;-90
2022/05/05 12:17:03;;;;;;;;;;;;;;;;;;5038264;28;19914;-88
2022/05/05 12:19:50;;;;;;;;;;;;;;;;;;5049276;28;19920;-88
2022/05/05 12:22:39;;;;;;;;;;;;;;;;;;5067572;28;19921;-89
2022/05/05 12:25:26;;;;;;;;;;;;;;;;;;5066565;28;20431;-89
2022/05/05 12:28:12;;;;;;;;;;;;;;;;;;5051979;28;19913;-90
2022/05/05 12:30:59;;;;;;;;;;;;;;;;;;5053464;28;20438;-89
2022/05/05 12:33:46;;;;;;;;;;;;;;;;;;5063811;28;19912;-91
2022/05/05 12:36:33;;;;;;;;;;;;;;;;;;5049740;28;19927;-86
2022/05/05 12:39:19;;;;;;;;;;;;;;;;;;5046315;28;19919;-88
2022/05/05 12:42:06;;;;;;;;;;;;;;;;;;5045043;28;19921;-91
2022/05/05 12:44:52;;;;;;;;;;;;;;;;;;5049747;28;19921;-86
2022/05/05 12:47:39;;;;;;;;;;;;;;;;;;5053227;28;19915;-88
2022/05/05 12:50:25;;;;;;;;;;;;;;;;;;5062433;28;19915;-88
2022/05/05 12:59:39;;;;;;;;;;;;;;;;;;5055661;28;19915;-95
2022/05/05 13:02:25;;;;;;;;;;;;;;;;;;5069294;28;19931;-87
2022/05/05 13:05:12;;;;;;;;;;;;;;;;;;5051824;28;19917;-91
2022/05/05 13:07:58;;;;;;;;;;;;;;;;;;5044903;28;20211;-85
2022/05/05 13:10:46;;;;;;;;;;;;;;;;;;5038720;28;19909;-88
2022/05/05 13:13:32;;;;;;;;;;;;;;;;;;5027407;28;19940;-85
2022/05/05 13:16:19;;;;;;;;;;;;;;;;;;5032050;28;20580;-81
2022/05/05 13:19:05;;;;;;;;;;;;;;;;;;5054340;28;19913;-83
2022/05/05 13:21:52;;;;;;;;;;;;;;;;;;5039608;28;19916;-90
2022/05/05 13:24:38;;;;;;;;;;;;;;;;;;5036312;28;19920;-88
2022/05/05 13:27:25;;;;;;;;;;;;;;;;;;5041577;28;19908;-87
2022/05/05 13:30:11;;;;;;;;;;;;;;;;;;5035876;28;19913;-87
2022/05/05 13:32:58;;;;;;;;;;;;;;;;;;5058277;28;19917;-90
2022/05/05 13:35:44;;;;;;;;;;;;;;;;;;5037555;28;19928;-88
2022/05/05 13:38:31;;;;;;;;;;;;;;;;;;5038565;28;19927;-92
2022/05/05 13:41:17;;;;;;;;;;;;;;;;;;5037342;28;19920;-90
2022/05/05 13:44:04;;;;;;;;;;;;;;;;;;5034182;28;19917;-88
2022/05/05 13:46:50;;;;;;;;;;;;;;;;;;5025865;28;19925;-85
2022/05/05 13:49:37;;;;;;;;;;;;;;;;;;5017676;28;20330;-89
2022/05/05 13:52:23;;;;;;;;;;;;;;;;;;5029194;28;19901;-89
2022/05/05 13:55:10;;;;;;;;;;;;;;;;;;5042914;28;19917;-90
2022/05/05 13:57:57;;;;;;;;;;;;;;;;;;5038233;28;19913;-90
2022/05/05 14:00:43;;;;;;;;;;;;;;;;;;5029692;28;19920;-90
2022/05/05 14:03:30;;;;;;;;;;;;;;;;;;5018187;28;19917;-92
2022/05/05 14:06:16;;;;;;;;;;;;;;;;;;5023640;28;19910;-92
2022/05/05 14:12:11;;;;;;;;;;;;;;;;;;5028683;28;19916;-93
2022/05/05 14:14:57;;;;;;;;;;;;;;;;;;5042044;28;19924;-86
2022/05/05 14:17:44;;;;;;;;;;;;;;;;;;5013930;28;19909;-85
2022/05/05 14:20:30;;;;;;;;;;;;;;;;;;5024808;28;19917;-87
2022/05/05 14:23:17;;;;;;;;;;;;;;;;;;5022632;28;19925;-86
2022/05/05 14:26:03;;;;;;;;;;;;;;;;;;5030601;28;19909;-85
2022/05/05 14:28:50;;;;;;;;;;;;;;;;;;5032924;28;19909;-79
2022/05/05 14:31:37;;;;;;;;;;;;;;;;;;5020599;28;19913;-83
2022/05/05 14:34:24;;;;;;;;;;;;;;;;;;5040801;28;19952;-87
2022/05/05 14:37:10;;;;;;;;;;;;;;;;;;5045816;28;19917;-84
2022/05/05 14:39:57;;;;;;;;;;;;;;;;;;5045055;28;19921;-82
2022/05/05 14:42:43;;;;;;;;;;;;;;;;;;5039958;28;19925;-83
2022/05/05 14:45:29;;;;;;;;;;;;;;;;;;5039992;28;19917;-82
2022/05/05 14:48:16;;;;;;;;;;;;;;;;;;5045616;28;20368;-82
2022/05/05 14:51:02;;;;;;;;;;;;;;;;;;5052944;28;19913;-81
2022/05/05 14:53:49;;;;;;;;;;;;;;;;;;5051495;28;19909;-82
2022/05/05 14:56:36;;;;;;;;;;;;;;;;;;5048636;28;19923;-81
2022/05/05 14:59:22;;;;;;;;;;;;;;;;;;5043609;28;19915;-81
2022/05/05 15:02:09;;;;;;;;;;;;;;;;;;5040875;28;19909;-82
2022/05/05 15:04:55;;;;;;;;;;;;;;;;;;5038617;28;19921;-86
2022/05/05 15:07:42;;;;;;;;;;;;;;;;;;5042882;28;20383;-87
2022/05/05 15:10:28;;;;;;;;;;;;;;;;;;5035002;28;19915;-83
2022/05/05 15:13:15;;;;;;;;;;;;;;;;;;5036750;28;20270;-85
2022/05/05 15:16:01;;;;;;;;;;;;;;;;;;5054652;28;19924;-84
2022/05/05 15:18:48;;;;;;;;;;;;;;;;;;5043187;28;19913;-82
2022/05/05 15:21:34;;;;;;;;;;;;;;;;;;5042311;28;19913;-86
2022/05/05 15:24:20;;;;;;;;;;;;;;;;;;5041541;28;19921;-83
2022/05/05 15:27:07;;;;;;;;;;;;;;;;;;5040388;28;19924;-84
2022/05/05 15:29:54;;;;;;;;;;;;;;;;;;5046726;28;20305;-82
2022/05/05 15:32:43;;;;;;;;;;;;;;;;;;5048921;28;19912;-88
2022/05/05 15:35:30;;;;;;;;;;;;;;;;;;5044922;28;20013;-86
2022/05/05 15:38:16;;;;;;;;;;;;;;;;;;5056702;28;19912;-83
2022/05/05 15:41:03;;;;;;;;;;;;;;;;;;5053438;28;20998;-81
2022/05/05 15:43:49;;;;;;;;;;;;;;;;;;5034788;28;19921;-78
2022/05/05 15:46:36;;;;;;;;;;;;;;;;;;5047070;28;19919;-78
2022/05/05 15:49:22;;;;;;;;;;;;;;;;;;5040957;28;19916;-77
2022/05/05 15:52:09;;;;;;;;;;;;;;;;;;5042898;28;19936;-83
2022/05/05 15:54:55;;;;;;;;;;;;;;;;;;5041911;28;19923;-85
2022/05/05 15:57:42;;;;;;;;;;;;;;;;;;5047334;28;19916;-82
2022/05/05 16:00:28;;;;;;;;;;;;;;;;;;5041979;28;19944;-81
2022/05/05 16:03:18;;;;;;;;;;;;;;;;;;5025710;28;19972;-80
2022/05/05 16:06:05;;;;;;;;;;;;;;;;;;5051994;28;19913;-82
2022/05/05 16:08:52;;;;;;;;;;;;;;;;;;5047507;28;19939;-82
2022/05/05 16:11:39;;;;;;;;;;;;;;;;;;5034694;28;20284;-81
2022/05/05 16:14:28;;;;;;;;;;;;;;;;;;5037981;28;19913;-83
2022/05/05 16:17:14;;;;;;;;;;;;;;;;;;5038721;28;19926;-80
2022/05/05 16:20:02;;;;;;;;;;;;;;;;;;5040151;28;19913;-81
2022/05/05 16:22:51;;;;;;;;;;;;;;;;;;5045034;28;19916;-82
2022/05/05 16:31:48;;;;;;;;;;;;;;;;;;5039909;28;19921;-79
2022/05/05 16:34:35;;;;;;;;;;;;;;;;;;5034454;28;19921;-81
2022/05/05 16:37:21;;;;;;;;;;;;;;;;;;5049817;28;19920;-78
2022/05/05 16:40:08;;;;;;;;;;;;;;;;;;5036928;28;19917;-79
2022/05/05 16:42:54;;;;;;;;;;;;;;;;;;5048819;28;19917;-81
2022/05/05 16:45:44;;;;;;;;;;;;;;;;;;5041181;28;20377;-80
2022/05/05 16:48:31;;;;;;;;;;;;;;;;;;5042729;28;19919;-83
2022/05/05 16:51:17;;;;;;;;;;;;;;;;;;5038912;28;19928;-80
2022/05/05 16:54:04;;;;;;;;;;;;;;;;;;5038359;28;19924;-78
2022/05/05 16:56:51;;;;;;;;;;;;;;;;;;5052580;28;19913;-78
2022/05/05 16:59:37;;;;;;;;;;;;;;;;;;5054747;28;19927;-81
2022/05/05 17:02:24;;;;;;;;;;;;;;;;;;5038886;28;19912;-78
2022/05/05 17:05:13;;;;;;;;;;;;;;;;;;5047574;28;19913;-76
2022/05/05 17:07:59;;;;;;;;;;;;;;;;;;5040082;28;20414;-80
2022/05/05 17:10:46;;;;;;;;;;;;;;;;;;5058067;28;19920;-79
2022/05/05 17:13:32;;;;;;;;;;;;;;;;;;5038582;28;19920;-76
2022/05/05 17:16:19;;;;;;;;;;;;;;;;;;5040692;28;20707;-76
2022/05/05 17:19:05;;;;;;;;;;;;;;;;;;5035507;28;19928;-75
2022/05/05 17:21:52;;;;;;;;;;;;;;;;;;5033228;28;19909;-77
2022/05/05 17:24:38;;;;;;;;;;;;;;;;;;5053755;28;19921;-75
2022/05/05 17:27:25;;;;;;;;;;;;;;;;;;5036894;28;19923;-74
2022/05/05 17:30:11;;;;;;;;;;;;;;;;;;5032426;28;19917;-76
2022/05/05 17:32:59;;;;;;;;;;;;;;;;;;5055462;28;19928;-77
2022/05/05 17:35:45;;;;;;;;;;;;;;;;;;5040066;28;19991;-78
2022/05/05 17:38:32;;;;;;;;;;;;;;;;;;5041196;28;19913;-77
2022/05/05 17:41:18;;;;;;;;;;;;;;;;;;5042441;28;20320;-77
2022/05/05 17:44:05;;;;;;;;;;;;;;;;;;5047509;28;19921;-77
2022/05/05 17:53:02;;;;;;;;;;;;;;;;;;5039999;28;19939;-77
2022/05/05 17:55:48;;;;;;;;;;;;;;;;;;5044549;28;19933;-76
2022/05/05 17:58:35;;;;;;;;;;;;;;;;;;5044805;28;19920;-76
2022/05/05 18:01:21;;;;;;;;;;;;;;;;;;5057081;28;19935;-74
2022/05/05 18:04:08;;;;;;;;;;;;;;;;;;5043183;28;19924;-76
2022/05/05 18:07:03;;;;;;;;;;;;;;;;;;5040468;28;19953;-76
2022/05/05 18:09:30;;;;;;;;;;;;;;;;;;5052170;28;19955;-74
2022/05/05 18:11:57;;;;;;;;;;;;;;;;;;5049167;28;20353;-76
2022/05/05 18:14:24;;;;;;;;;;;;;;;;;;5037439;28;19917;-76
2022/05/05 18:16:50;;;;;;;;;;;;;;;;;;5038829;28;19971;-75
2022/05/05 18:19:38;;;;;;;;;;;;;;;;;;5044594;28;19927;-74
2022/05/05 18:22:29;;;;;;;;;;;;;;;;;;5045587;28;19912;-75
2022/05/05 18:24:55;;;;;;;;;;;;;;;;;;5051356;28;20271;-76
2022/05/05 18:27:21;;;;;;;;;;;;;;;;;;5043605;28;19917;-76
2022/05/05 18:29:47;;;;;;;;;;;;;;;;;;5050132;28;20127;-75
2022/05/05 18:32:14;;;;;;;;;;;;;;;;;;5051513;28;19935;-75
2022/05/05 18:34:40;;;;;;;;;;;;;;;;;;5043608;28;19927;-77
2022/05/05 18:37:06;;;;;;;;;;;;;;;;;;5051310;28;19917;-77
2022/05/05 18:39:35;;;;;;;;;;;;;;;;;;5044577;28;19920;-76
2022/05/05 18:42:01;;;;;;;;;;;;;;;;;;5059430;28;19924;-76
2022/05/05 18:44:29;;;;;;;;;;;;;;;;;;5045551;28;19925;-75
2022/05/05 18:46:55;;;;;;;;;;;;;;;;;;5051400;28;19919;-76
2022/05/05 18:49:22;;;;;;;;;;;;;;;;;;5049611;28;19916;-75
2022/05/05 18:51:48;;;;;;;;;;;;;;;;;;5033172;28;19921;-76
2022/05/05 18:54:15;;;;;;;;;;;;;;;;;;5049902;28;19917;-76
2022/05/05 18:56:41;;;;;;;;;;;;;;;;;;5050144;28;19938;-75
2022/05/05 18:59:07;;;;;;;;;;;;;;;;;;5050925;28;19916;-75
2022/05/05 19:01:34;;;;;;;;;;;;;;;;;;5050268;28;19916;-80
2022/05/05 19:04:00;;;;;;;;;;;;;;;;;;5043835;28;19921;-75
2022/05/05 19:06:27;;;;;;;;;;;;;;;;;;5051101;28;20307;-76
2022/05/05 19:08:54;;;;;;;;;;;;;;;;;;5046001;28;19913;-75
2022/05/05 19:11:20;;;;;;;;;;;;;;;;;;5051304;28;19920;-76
2022/05/05 19:13:46;;;;;;;;;;;;;;;;;;5047154;28;19921;-75
2022/05/05 19:16:13;;;;;;;;;;;;;;;;;;5042970;28;20391;-76
2022/05/05 19:18:39;;;;;;;;;;;;;;;;;;5045434;28;19935;-77
2022/05/05 19:21:05;;;;;;;;;;;;;;;;;;5064836;28;19913;-78
2022/05/05 19:23:31;;;;;;;;;;;;;;;;;;5059933;28;19924;-80
2022/05/05 19:25:57;;;;;;;;;;;;;;;;;;5035985;28;19912;-78
2022/05/05 19:28:23;;;;;;;;;;;;;;;;;;5048604;28;19912;-78
2022/05/05 19:30:50;;;;;;;;;;;;;;;;;;5048816;28;19913;-79
2022/05/05 19:33:16;;;;;;;;;;;;;;;;;;5046538;28;20234;-80
2022/05/05 19:35:42;;;;;;;;;;;;;;;;;;5047245;28;19928;-81
2022/05/05 19:38:08;;;;;;;;;;;;;;;;;;5049356;28;19921;-84
2022/05/05 19:40:34;;;;;;;;;;;;;;;;;;5045924;28;19921;-80
2022/05/05 19:43:00;;;;;;;;;;;;;;;;;;5042296;28;20390;-82
2022/05/05 19:45:27;;;;;;;;;;;;;;;;;;5043842;28;20296;-80
2022/05/05 19:47:53;;;;;;;;;;;;;;;;;;5041365;28;19913;-83
2022/05/05 19:50:19;;;;;;;;;;;;;;;;;;5034916;28;19950;-84